createdAt,value
2023-10-22T00:00:05.387Z,94547.94
2023-10-22T00:02:38.360Z,94551.34
2023-10-22T00:05:06.124Z,94559.88
2023-10-22T00:07:36.284Z,94561.75
2023-10-22T00:10:03.214Z,94571.06
2023-10-22T00:12:29.878Z,94580.72
2023-10-22T00:14:56.670Z,94578.81
2023-10-22T00:17:23.516Z,94580.72
2023-10-22T00:19:50.179Z,94581.53
2023-10-22T00:22:16.923Z,94594.00
2023-10-22T00:24:43.568Z,94593.63
2023-10-22T00:27:10.235Z,94595.59
2023-10-22T00:29:36.907Z,94603.41
2023-10-22T00:32:03.742Z,94617.03
2023-10-22T00:34:31.101Z,94612.34
2023-10-22T00:36:57.898Z,94604.19
2023-10-22T00:39:24.594Z,94613.94
2023-10-22T00:41:51.381Z,94617.47
2023-10-22T00:44:18.122Z,94617.47
2023-10-22T00:46:47.170Z,94616.69
2023-10-22T00:49:16.282Z,94618.25
2023-10-22T00:51:44.136Z,94615.16
2023-10-22T00:54:13.532Z,94612.00
2023-10-22T00:56:40.618Z,94614.38
2023-10-22T00:59:08.027Z,94615.16
2023-10-22T01:01:34.839Z,94618.69
2023-10-22T01:04:03.342Z,94624.94
2023-10-22T01:06:30.032Z,94631.88
2023-10-22T01:08:57.295Z,94629.94
2023-10-22T01:11:23.966Z,94624.03
2023-10-22T01:13:50.700Z,94631.09
2023-10-22T01:16:17.360Z,94624.84
2023-10-22T01:18:44.320Z,94625.97
2023-10-22T01:21:11.510Z,94629.50
2023-10-22T01:23:39.024Z,94637.22
2023-10-22T01:26:07.115Z,94637.59
2023-10-22T01:28:37.571Z,94628.97
2023-10-22T01:31:04.573Z,94631.69
2023-10-22T01:33:31.415Z,94632.06
2023-10-22T01:35:58.206Z,94625.00
2023-10-22T01:38:24.985Z,94626.97
2023-10-22T01:40:51.611Z,94624.94
2023-10-22T01:43:18.327Z,94635.81
2023-10-22T01:45:46.317Z,94636.53
2023-10-22T01:48:13.292Z,94628.72
2023-10-22T01:50:40.144Z,94631.78
2023-10-22T01:53:06.837Z,94637.22
2023-10-22T01:55:34.311Z,94635.19
2023-10-22T01:58:00.904Z,94635.19
2023-10-22T02:00:27.622Z,94646.44
2023-10-22T02:02:54.630Z,94636.72
2023-10-22T02:05:21.494Z,94634.34
2023-10-22T02:07:53.876Z,94639.78
2023-10-22T02:10:23.412Z,94633.53
2023-10-22T02:12:50.103Z,94639.31
2023-10-22T02:15:17.744Z,94638.53
2023-10-22T02:17:44.479Z,94637.75
2023-10-22T02:20:11.889Z,94644.00
2023-10-22T02:22:39.152Z,94648.66
2023-10-22T02:25:07.651Z,94654.88
2023-10-22T02:27:34.674Z,94647.50
2023-10-22T02:30:01.547Z,94647.50
2023-10-22T02:32:28.214Z,94651.81
2023-10-22T02:34:55.118Z,94654.97
2023-10-22T02:37:21.876Z,94659.63
2023-10-22T02:39:48.577Z,94662.00
2023-10-22T02:42:15.946Z,94666.31
2023-10-22T02:44:42.725Z,94663.59
2023-10-22T02:47:10.161Z,94665.16
2023-10-22T02:49:36.862Z,94669.06
2023-10-22T02:52:04.087Z,94672.22
2023-10-22T02:54:30.702Z,94680.38
2023-10-22T02:56:57.519Z,94678.44
2023-10-22T02:59:24.368Z,94677.66
2023-10-22T03:01:51.276Z,94684.69
2023-10-22T03:04:18.012Z,94680.81
2023-10-22T03:06:45.723Z,94688.97
2023-10-22T03:09:12.705Z,94686.69
2023-10-22T03:11:39.511Z,94687.50
2023-10-22T03:14:06.284Z,94685.56
2023-10-22T03:16:33.087Z,94690.66
2023-10-22T03:18:59.956Z,94692.25
2023-10-22T03:21:26.818Z,94690.31
2023-10-22T03:23:53.510Z,94691.91
2023-10-22T03:26:20.366Z,94690.75
2023-10-22T03:28:48.353Z,94691.22
2023-10-22T03:31:15.077Z,94691.22
2023-10-22T03:33:41.837Z,94692.00
2023-10-22T03:36:10.648Z,94690.03
2023-10-22T03:38:37.530Z,94686.97
2023-10-22T03:41:05.960Z,94681.53
2023-10-22T03:43:33.574Z,94688.13
2023-10-22T03:46:01.302Z,94687.31
2023-10-22T03:48:29.425Z,94689.25
2023-10-22T03:50:56.915Z,94686.19
2023-10-22T03:53:23.690Z,94686.97
2023-10-22T03:55:51.007Z,94684.25
2023-10-22T03:58:17.750Z,94692.78
2023-10-22T04:00:44.573Z,94693.59
2023-10-22T04:03:11.367Z,94692.00
2023-10-22T04:05:38.160Z,94696.31
2023-10-22T04:08:05.108Z,94688.47
2023-10-22T04:10:31.792Z,94698.22
2023-10-22T04:12:58.477Z,94698.56
2023-10-22T04:15:25.084Z,94700.50
2023-10-22T04:17:51.824Z,94697.34
2023-10-22T04:20:18.512Z,94702.00
2023-10-22T04:22:45.913Z,94704.72
2023-10-22T04:25:14.505Z,94702.69
2023-10-22T04:27:41.461Z,94706.22
2023-10-22T04:30:09.253Z,94702.69
2023-10-22T04:32:36.524Z,94701.91
2023-10-22T04:35:03.838Z,94706.56
2023-10-22T04:37:30.542Z,94704.97
2023-10-22T04:39:59.575Z,94710.06
2023-10-22T04:42:29.024Z,94711.22
2023-10-22T04:44:56.407Z,94719.38
2023-10-22T04:47:23.311Z,94726.00
2023-10-22T04:49:54.406Z,94724.03
2023-10-22T04:52:21.891Z,94729.50
2023-10-22T04:54:48.554Z,94726.00
2023-10-22T04:57:15.358Z,94723.25
2023-10-22T04:59:42.065Z,94726.00
2023-10-22T05:02:08.730Z,94735.28
2023-10-22T05:04:35.512Z,94731.00
2023-10-22T05:07:02.295Z,94726.34
2023-10-22T05:09:28.899Z,94728.28
2023-10-22T05:11:55.590Z,94730.19
2023-10-22T05:14:22.364Z,94737.59
2023-10-22T05:16:49.138Z,94735.97
2023-10-22T05:19:15.739Z,94741.44
2023-10-22T05:21:42.424Z,94745.75
2023-10-22T05:24:09.333Z,94748.47
2023-10-22T05:26:36.219Z,94746.88
2023-10-22T05:29:02.882Z,94751.53
2023-10-22T05:31:29.734Z,94755.41
2023-10-22T05:33:56.371Z,94762.44
2023-10-22T05:36:23.472Z,94772.56
2023-10-22T05:38:51.050Z,94770.97
2023-10-22T05:41:22.436Z,94772.09
2023-10-22T05:43:53.244Z,94772.56
2023-10-22T05:46:20.225Z,94775.63
2023-10-22T05:48:47.061Z,94785.69
2023-10-22T05:51:13.816Z,94785.69
2023-10-22T05:53:40.545Z,94787.31
2023-10-22T05:56:07.182Z,94790.03
2023-10-22T05:58:33.925Z,94809.09
2023-10-22T06:01:00.551Z,94802.03
2023-10-22T06:03:27.250Z,94807.50
2023-10-22T06:05:54.040Z,94812.16
2023-10-22T06:08:20.737Z,94811.38
2023-10-22T06:10:47.514Z,94821.47
2023-10-22T06:13:14.270Z,94821.47
2023-10-22T06:15:45.850Z,94825.34
2023-10-22T06:18:13.396Z,94829.63
2023-10-22T06:20:40.209Z,94833.94
2023-10-22T06:23:07.240Z,94837.44
2023-10-22T06:25:34.134Z,94837.09
2023-10-22T06:28:01.637Z,94838.38
2023-10-22T06:30:29.010Z,94838.03
2023-10-22T06:32:57.829Z,94846.28
2023-10-22T06:35:25.115Z,94846.72
2023-10-22T06:37:52.384Z,94853.75
2023-10-22T06:40:19.819Z,94853.06
2023-10-22T06:42:46.466Z,94857.84
2023-10-22T06:45:13.081Z,94862.59
2023-10-22T06:47:40.804Z,94868.47
2023-10-22T06:50:11.930Z,94871.66
2023-10-22T06:52:39.457Z,94876.41
2023-10-22T06:55:06.904Z,94885.03
2023-10-22T06:57:33.661Z,94887.09
2023-10-22T07:00:00.338Z,94892.63
2023-10-22T07:02:27.521Z,94890.34
2023-10-22T07:04:54.934Z,94900.53
2023-10-22T07:07:22.766Z,94897.13
2023-10-22T07:09:51.502Z,94899.16
2023-10-22T07:12:18.829Z,94902.78
2023-10-22T07:14:45.563Z,94909.13
2023-10-22T07:17:12.227Z,94912.75
2023-10-22T07:19:38.891Z,94915.56
2023-10-22T07:22:05.560Z,94914.53
2023-10-22T07:24:32.209Z,94916.22
2023-10-22T07:26:58.850Z,94916.31
2023-10-22T07:29:25.566Z,94921.06
2023-10-22T07:31:52.424Z,94927.75
2023-10-22T07:34:19.049Z,94921.16
2023-10-22T07:36:45.801Z,94928.28
2023-10-22T07:39:12.442Z,94929.56
2023-10-22T07:41:39.300Z,94925.31
2023-10-22T07:44:06.123Z,94937.94
2023-10-22T07:46:32.853Z,94934.84
2023-10-22T07:48:59.520Z,94940.41
2023-10-22T07:51:26.227Z,94939.25
2023-10-22T07:53:53.065Z,94949.13
2023-10-22T07:56:19.713Z,94944.09
2023-10-22T07:58:46.498Z,94941.50
2023-10-22T08:01:13.271Z,94952.50
2023-10-22T08:03:40.108Z,94951.00
2023-10-22T08:06:07.155Z,94952.66
2023-10-22T08:08:34.064Z,94962.88
2023-10-22T08:11:03.541Z,94960.25
2023-10-22T08:13:30.408Z,94967.75
2023-10-22T08:15:57.586Z,94963.16
2023-10-22T08:18:24.497Z,94957.78
2023-10-22T08:20:51.247Z,94968.47
2023-10-22T08:23:18.464Z,94982.19
2023-10-22T08:25:51.934Z,94976.03
2023-10-22T08:28:18.608Z,94974.63
2023-10-22T08:30:49.190Z,94975.47
2023-10-22T08:33:15.926Z,94988.09
2023-10-22T08:35:43.188Z,94995.22
2023-10-22T08:38:10.308Z,95000.75
2023-10-22T08:40:40.580Z,94995.31
2023-10-22T08:43:11.844Z,95006.34
2023-10-22T08:45:38.584Z,95011.00
2023-10-22T08:48:06.206Z,94999.28
2023-10-22T08:50:34.131Z,95007.03
2023-10-22T08:53:00.782Z,95006.22
2023-10-22T08:55:30.117Z,95006.22
2023-10-22T08:58:00.568Z,95009.78
2023-10-22T09:00:30.090Z,95012.03
2023-10-22T09:02:58.908Z,95003.84
2023-10-22T09:05:25.588Z,95012.50
2023-10-22T09:07:53.813Z,95009.78
2023-10-22T09:10:27.849Z,95001.50
2023-10-22T09:12:54.674Z,95003.06
2023-10-22T09:15:21.655Z,95001.50
2023-10-22T09:18:01.280Z,95001.03
2023-10-22T09:20:28.162Z,94994.78
2023-10-22T09:23:12.523Z,94999.34
2023-10-22T09:25:39.854Z,95001.31
2023-10-22T09:28:17.970Z,94998.16
2023-10-22T09:30:44.767Z,95002.00
2023-10-22T09:33:11.916Z,95005.53
2023-10-22T09:35:39.050Z,95001.22
2023-10-22T09:38:05.968Z,95005.88
2023-10-22T09:40:33.603Z,95009.41
2023-10-22T09:43:01.842Z,95009.78
2023-10-22T09:45:29.724Z,95016.00
2023-10-22T09:48:09.046Z,95020.69
2023-10-22T09:50:45.689Z,95018.31
2023-10-22T09:53:17.526Z,95014.41
2023-10-22T09:55:49.147Z,95013.28
2023-10-22T09:58:17.668Z,95020.00
2023-10-22T10:00:51.152Z,95013.91
2023-10-22T10:03:21.508Z,95021.84
2023-10-22T10:05:48.998Z,95012.66
2023-10-22T10:08:18.240Z,95011.31
2023-10-22T10:10:46.225Z,95009.91
2023-10-22T10:13:13.965Z,95011.25
2023-10-22T10:15:40.683Z,95007.47
2023-10-22T10:18:07.778Z,95009.94
2023-10-22T10:20:34.879Z,94997.94
2023-10-22T10:23:05.515Z,95010.19
2023-10-22T10:25:34.017Z,94999.06
2023-10-22T10:28:02.746Z,94993.72
2023-10-22T10:30:29.474Z,94992.38
2023-10-22T10:33:11.333Z,94991.75
2023-10-22T10:35:49.537Z,94983.69
2023-10-22T10:38:16.805Z,94980.75
2023-10-22T10:40:46.107Z,94975.75
2023-10-22T10:43:13.114Z,94977.94
2023-10-22T10:45:40.119Z,94981.22
2023-10-22T10:48:06.832Z,94986.53
2023-10-22T10:50:33.536Z,94985.19
2023-10-22T10:53:00.568Z,94988.44
2023-10-22T10:55:27.184Z,94983.44
2023-10-22T10:57:54.731Z,94979.59
2023-10-22T11:00:23.892Z,94984.81
2023-10-22T11:02:52.702Z,94982.53
2023-10-22T11:05:38.001Z,94984.97
2023-10-22T11:08:06.533Z,94985.09
2023-10-22T11:10:33.426Z,94982.84
2023-10-22T11:13:07.535Z,94979.09
2023-10-22T11:15:36.172Z,94978.75
2023-10-22T11:18:04.661Z,94973.75
2023-10-22T11:20:31.617Z,94980.44
2023-10-22T11:22:58.758Z,94981.69
2023-10-22T11:25:27.450Z,94976.25
2023-10-22T11:27:54.761Z,94968.84
2023-10-22T11:30:38.896Z,94971.31
2023-10-22T11:33:28.275Z,94969.84
2023-10-22T11:35:55.133Z,94969.59
2023-10-22T11:38:22.989Z,94975.97
2023-10-22T11:40:55.063Z,94972.91
2023-10-22T11:43:21.724Z,94969.81
2023-10-22T11:45:56.276Z,94967.53
2023-10-22T11:48:25.773Z,94973.38
2023-10-22T11:50:57.378Z,94970.56
2023-10-22T11:53:27.807Z,94969.38
2023-10-22T11:55:54.486Z,94965.00
2023-10-22T11:58:22.817Z,94969.69
2023-10-22T12:00:50.047Z,94970.00
2023-10-22T12:03:17.362Z,94970.72
2023-10-22T12:05:44.372Z,94974.66
2023-10-22T12:08:11.267Z,94971.53
2023-10-22T12:10:38.074Z,94971.22
2023-10-22T12:13:04.842Z,94968.88
2023-10-22T12:15:31.488Z,94970.16
2023-10-22T12:17:58.299Z,94973.75
2023-10-22T12:20:25.168Z,94972.63
2023-10-22T12:22:51.975Z,94972.31
2023-10-22T12:25:18.881Z,94978.25
2023-10-22T12:27:45.606Z,94970.13
2023-10-22T12:30:12.524Z,94969.06
2023-10-22T12:32:39.406Z,94961.66
2023-10-22T12:35:06.408Z,94966.44
2023-10-22T12:37:33.171Z,94970.00
2023-10-22T12:39:59.873Z,94974.75
2023-10-22T12:42:26.515Z,94977.13
2023-10-22T12:44:53.421Z,94981.88
2023-10-22T12:47:20.194Z,94977.56
2023-10-22T12:49:47.172Z,94974.75
2023-10-22T12:52:14.749Z,94973.19
2023-10-22T12:54:43.292Z,94972.75
2023-10-22T12:57:11.046Z,94975.56
2023-10-22T12:59:37.757Z,94973.59
2023-10-22T13:02:04.719Z,94973.69
2023-10-22T13:04:31.670Z,94975.25
2023-10-22T13:06:58.538Z,94960.28
2023-10-22T13:09:25.382Z,94974.75
2023-10-22T13:11:52.085Z,94977.94
2023-10-22T13:14:22.903Z,94981.00
2023-10-22T13:16:49.859Z,94987.63
2023-10-22T13:19:16.914Z,94981.69
2023-10-22T13:21:43.600Z,94973.47
2023-10-22T13:24:10.415Z,94978.53
2023-10-22T13:26:37.114Z,94983.25
2023-10-22T13:29:03.910Z,94982.06
2023-10-22T13:31:30.630Z,94977.78
2023-10-22T13:33:57.310Z,94982.53
2023-10-22T13:36:23.998Z,94984.53
2023-10-22T13:38:50.677Z,94991.59
2023-10-22T13:41:17.352Z,94990.84
2023-10-22T13:43:44.145Z,94989.28
2023-10-22T13:46:10.801Z,94996.34
2023-10-22T13:48:37.441Z,94994.44
2023-10-22T13:51:07.230Z,94998.78
2023-10-22T13:53:33.923Z,95003.19
2023-10-22T13:56:00.929Z,95005.94
2023-10-22T13:58:29.715Z,95002.75
2023-10-22T14:00:56.638Z,95006.72
2023-10-22T14:03:23.423Z,95005.94
2023-10-22T14:05:51.431Z,95007.47
2023-10-22T14:08:19.190Z,95001.16
2023-10-22T14:10:47.488Z,95004.19
2023-10-22T14:13:14.203Z,94999.03
2023-10-22T14:15:40.982Z,94995.41
2023-10-22T14:18:07.826Z,95001.25
2023-10-22T14:20:34.522Z,95001.16
2023-10-22T14:23:01.235Z,94998.25
2023-10-22T14:25:27.975Z,95009.94
2023-10-22T14:27:54.707Z,95016.09
2023-10-22T14:30:21.521Z,95016.78
2023-10-22T14:32:48.249Z,95010.84
2023-10-22T14:35:14.924Z,95005.28
2023-10-22T14:37:41.641Z,94997.00
2023-10-22T14:40:10.294Z,95002.53
2023-10-22T14:42:36.973Z,95007.19
2023-10-22T14:45:05.340Z,95007.91
2023-10-22T14:47:32.251Z,95002.38
2023-10-22T14:49:58.934Z,95014.84
2023-10-22T14:52:25.576Z,95008.13
2023-10-22T14:54:52.267Z,95012.84
2023-10-22T14:57:19.130Z,95011.25
2023-10-22T14:59:45.922Z,95010.03
2023-10-22T15:02:12.545Z,95013.53
2023-10-22T15:04:39.384Z,95014.66
2023-10-22T15:07:06.270Z,95010.69
2023-10-22T15:09:32.941Z,95013.44
2023-10-22T15:11:59.749Z,95024.81
2023-10-22T15:14:26.401Z,95032.22
2023-10-22T15:16:53.048Z,95024.81
2023-10-22T15:19:19.792Z,95027.09
2023-10-22T15:21:46.506Z,95021.56
2023-10-22T15:24:13.180Z,95023.88
2023-10-22T15:26:39.875Z,95025.41
2023-10-22T15:29:06.521Z,95030.00
2023-10-22T15:31:33.483Z,95033.88
2023-10-22T15:34:00.234Z,95034.59
2023-10-22T15:36:26.933Z,95041.19
2023-10-22T15:38:53.662Z,95051.63
2023-10-22T15:41:20.262Z,95056.63
2023-10-22T15:43:46.972Z,95043.56
2023-10-22T15:46:20.812Z,95050.91
2023-10-22T15:48:48.361Z,95051.53
2023-10-22T15:51:16.776Z,95052.97
2023-10-22T15:53:43.928Z,95054.81
2023-10-22T15:56:10.631Z,95058.50
2023-10-22T15:58:37.434Z,95059.16
2023-10-22T16:01:04.171Z,95056.63
2023-10-22T16:03:30.914Z,95068.25
2023-10-22T16:05:57.652Z,95064.91
2023-10-22T16:08:24.341Z,95057.72
2023-10-22T16:10:51.196Z,95063.38
2023-10-22T16:13:17.878Z,95071.44
2023-10-22T16:15:44.597Z,95078.56
2023-10-22T16:18:11.469Z,95080.72
2023-10-22T16:20:38.343Z,95079.31
2023-10-22T16:23:05.111Z,95081.44
2023-10-22T16:25:31.756Z,95080.06
2023-10-22T16:27:58.391Z,95085.66
2023-10-22T16:30:27.851Z,95090.06
2023-10-22T16:32:54.642Z,95088.19
2023-10-22T16:35:21.360Z,95095.75
2023-10-22T16:37:47.960Z,95095.47
2023-10-22T16:40:14.686Z,95092.09
2023-10-22T16:42:41.429Z,95095.00
2023-10-22T16:45:08.687Z,95100.59
2023-10-22T16:47:35.411Z,95097.69
2023-10-22T16:50:02.151Z,95107.25
2023-10-22T16:52:28.764Z,95106.59
2023-10-22T16:54:55.680Z,95109.91
2023-10-22T16:57:22.520Z,95116.28
2023-10-22T16:59:49.256Z,95122.28
2023-10-22T17:02:16.078Z,95128.34
2023-10-22T17:04:42.841Z,95128.13
2023-10-22T17:07:09.556Z,95134.63
2023-10-22T17:09:36.364Z,95131.66
2023-10-22T17:12:03.611Z,95128.72
2023-10-22T17:14:45.261Z,95126.53
2023-10-22T17:17:16.993Z,95133.72
2023-10-22T17:19:44.087Z,95137.81
2023-10-22T17:22:10.876Z,95136.44
2023-10-22T17:24:37.553Z,95141.31
2023-10-22T17:27:04.388Z,95138.38
2023-10-22T17:29:31.004Z,95138.13
2023-10-22T17:31:57.668Z,95153.91
2023-10-22T17:34:24.476Z,95145.47
2023-10-22T17:36:51.177Z,95146.03
2023-10-22T17:39:17.914Z,95150.09
2023-10-22T17:41:44.627Z,95153.03
2023-10-22T17:44:11.713Z,95158.72
2023-10-22T17:46:38.480Z,95155.06
2023-10-22T17:49:05.184Z,95148.69
2023-10-22T17:51:31.839Z,95158.97
2023-10-22T17:53:58.527Z,95158.84
2023-10-22T17:56:25.129Z,95161.41
2023-10-22T17:58:51.881Z,95161.31
2023-10-22T18:01:18.628Z,95166.63
2023-10-22T18:03:45.322Z,95168.41
2023-10-22T18:06:12.008Z,95160.13
2023-10-22T18:08:38.743Z,95161.56
2023-10-22T18:11:06.094Z,95170.72
2023-10-22T18:13:32.886Z,95162.00
2023-10-22T18:15:59.592Z,95173.53
2023-10-22T18:18:26.617Z,95167.97
2023-10-22T18:20:53.512Z,95172.81
2023-10-22T18:23:21.027Z,95164.53
2023-10-22T18:25:59.039Z,95170.94
2023-10-22T18:28:25.644Z,95174.03
2023-10-22T18:30:52.295Z,95175.31
2023-10-22T18:33:19.002Z,95182.19
2023-10-22T18:35:45.789Z,95182.06
2023-10-22T18:38:12.422Z,95177.28
2023-10-22T18:40:39.135Z,95178.75
2023-10-22T18:43:05.818Z,95182.13
2023-10-22T18:45:39.876Z,95186.63
2023-10-22T18:48:06.555Z,95188.06
2023-10-22T18:50:33.685Z,95185.22
2023-10-22T18:53:00.750Z,95181.25
2023-10-22T18:55:27.400Z,95192.47
2023-10-22T18:57:54.243Z,95180.31
2023-10-22T19:00:21.190Z,95191.50
2023-10-22T19:02:48.015Z,95195.22
2023-10-22T19:05:14.906Z,95189.31
2023-10-22T19:07:41.503Z,95202.75
2023-10-22T19:10:08.540Z,95205.00
2023-10-22T19:12:35.227Z,95198.31
2023-10-22T19:15:01.981Z,95200.84
2023-10-22T19:17:28.636Z,95198.78
2023-10-22T19:19:55.539Z,95209.19
2023-10-22T19:22:22.240Z,95208.72
2023-10-22T19:24:48.928Z,95210.16
2023-10-22T19:27:16.071Z,95211.63
2023-10-22T19:29:42.756Z,95213.41
2023-10-22T19:32:09.457Z,95210.53
2023-10-22T19:34:36.172Z,95213.09
2023-10-22T19:37:03.044Z,95219.63
2023-10-22T19:39:31.423Z,95224.91
2023-10-22T19:41:58.177Z,95228.75
2023-10-22T19:44:24.820Z,95223.63
2023-10-22T19:46:51.528Z,95234.81
2023-10-22T19:49:18.156Z,95225.41
2023-10-22T19:51:44.911Z,95229.25
2023-10-22T19:54:11.674Z,95228.75
2023-10-22T19:56:38.681Z,95229.06
2023-10-22T19:59:05.380Z,95232.94
2023-10-22T20:01:32.042Z,95227.81
2023-10-22T20:04:00.101Z,95224.66
2023-10-22T20:06:26.901Z,95226.53
2023-10-22T20:08:53.989Z,95222.25
2023-10-22T20:11:21.166Z,95230.72
2023-10-22T20:13:47.948Z,95232.94
2023-10-22T20:16:23.365Z,95233.25
2023-10-22T20:18:51.529Z,95218.91
2023-10-22T20:21:18.683Z,95221.66
2023-10-22T20:23:45.795Z,95228.00
2023-10-22T20:26:13.425Z,95229.59
2023-10-22T20:28:44.805Z,95227.53
2023-10-22T20:31:12.325Z,95235.69
2023-10-22T20:33:40.840Z,95230.56
2023-10-22T20:36:07.782Z,95233.28
2023-10-22T20:38:34.830Z,95236.66
2023-10-22T20:41:09.280Z,95234.56
2023-10-22T20:43:36.314Z,95239.22
2023-10-22T20:46:07.134Z,95243.34
2023-10-22T20:48:36.020Z,95241.28
2023-10-22T20:51:15.696Z,95240.81
2023-10-22T20:53:47.164Z,95236.50
2023-10-22T20:56:14.918Z,95238.75
2023-10-22T20:58:42.008Z,95237.13
2023-10-22T21:01:15.164Z,95243.69
2023-10-22T21:03:44.242Z,95234.28
2023-10-22T21:06:13.190Z,95232.66
2023-10-22T21:08:39.965Z,95233.31
2023-10-22T21:11:06.642Z,95224.38
2023-10-22T21:13:33.344Z,95225.47
2023-10-22T21:16:00.137Z,95223.09
2023-10-22T21:18:27.003Z,95224.22
2023-10-22T21:21:01.206Z,95229.19
2023-10-22T21:23:28.799Z,95224.06
2023-10-22T21:25:55.784Z,95230.94
2023-10-22T21:28:22.783Z,95231.25
2023-10-22T21:30:49.484Z,95233.47
2023-10-22T21:33:16.588Z,95234.59
2023-10-22T21:35:44.291Z,95234.91
2023-10-22T21:38:11.037Z,95232.97
2023-10-22T21:40:37.916Z,95239.22
2023-10-22T21:43:04.818Z,95240.03
2023-10-22T21:45:31.484Z,95241.63
2023-10-22T21:47:58.167Z,95254.88
2023-10-22T21:50:24.978Z,95250.22
2023-10-22T21:52:52.035Z,95252.16
2023-10-22T21:55:18.709Z,95244.03
2023-10-22T21:57:49.770Z,95251.34
2023-10-22T22:00:16.899Z,95247.53
2023-10-22T22:02:43.701Z,95244.34
2023-10-22T22:05:10.406Z,95256.78
2023-10-22T22:07:37.048Z,95240.50
2023-10-22T22:10:03.912Z,95233.16
2023-10-22T22:12:30.617Z,95237.97
2023-10-22T22:14:57.269Z,95232.22
2023-10-22T22:17:24.020Z,95233.78
2023-10-22T22:19:50.633Z,95221.03
2023-10-22T22:22:17.229Z,95217.19
2023-10-22T22:24:43.957Z,95213.38
2023-10-22T22:27:10.619Z,95214.16
2023-10-22T22:29:37.419Z,95213.84
2023-10-22T22:32:04.263Z,95206.47
2023-10-22T22:34:30.998Z,95199.16
2023-10-22T22:36:57.687Z,95192.59
2023-10-22T22:39:24.394Z,95194.19
2023-10-22T22:41:51.178Z,95184.13
2023-10-22T22:44:17.903Z,95181.75
2023-10-22T22:46:44.642Z,95192.59
2023-10-22T22:49:11.388Z,95198.03
2023-10-22T22:51:38.320Z,95205.84
2023-10-22T22:54:05.146Z,95205.84
2023-10-22T22:56:31.827Z,95195.00
2023-10-22T22:58:58.535Z,95188.44
2023-10-22T23:01:25.316Z,95192.28
2023-10-22T23:03:51.982Z,95195.50
2023-10-22T23:06:19.233Z,95195.00
2023-10-22T23:08:46.025Z,95198.03
2023-10-22T23:11:13.192Z,95189.88
2023-10-22T23:13:39.929Z,95184.78
2023-10-22T23:16:06.742Z,95184.00
2023-10-22T23:18:33.606Z,95181.59
2023-10-22T23:21:00.574Z,95184.63
2023-10-22T23:23:27.240Z,95179.53
2023-10-22T23:25:53.896Z,95183.38
2023-10-22T23:28:20.515Z,95178.25
2023-10-22T23:30:50.348Z,95182.09
2023-10-22T23:33:17.649Z,95181.31
2023-10-22T23:35:44.320Z,95171.09
2023-10-22T23:38:10.950Z,95171.09
2023-10-22T23:40:37.615Z,95174.13
2023-10-22T23:43:04.308Z,95180.97
2023-10-22T23:45:30.974Z,95179.69
2023-10-22T23:47:57.776Z,95181.13
2023-10-22T23:50:24.704Z,95174.44
2023-10-22T23:52:51.303Z,95180.50
2023-10-22T23:55:18.084Z,95181.13
2023-10-22T23:57:44.785Z,95179.06
